• Join FlightAware (Why Join?)
  • Login
  • US Flag 
07:17AM EST


 

Airport Tracker/Info


-or-


 

Live Flight TrackerFlight Track Log ✈ KEY9595 ✈ 22-Feb-2014 ✈ KLIT - KTUS

Flight Track Log - Related Links

Times and Time Zones

All times are in EST time to prevent confusion due to time zone crossing. See the KEY9595 flight status page for this flight to view local times or setup timezone preferences in your user account.

Time Position Orientation Groundspeed Altitude Reporting Facility
EST Latitude Longitude Course Direction KTS MPH feet Rate Location/Type
11:31AM 34.7186 -92.2375 215° Southwest 142 163 1,000  Level Memphis Center
11:32AM 34.6864 -92.2647 215° Southwest 193 222 3,400 2,760 Climbing Memphis Center
11:32AM 34.6853 -92.3133 268° West 246 283 5,500 3,240 Climbing Memphis Center
11:33AM 34.6814 -92.3436 261° West 238 274 6,700 2,640 Climbing Memphis Center
11:33AM 34.6778 -92.3942 265° West 240 276 8,200 2,880 Climbing Memphis Center
11:35AM 34.6706 -92.4894 265° West 268 308 11,700 3,300 Climbing Memphis Center
11:36AM 34.6653 -92.5950 267° West 300 345 15,100 3,360 Climbing Memphis Center
11:37AM 34.6544 -92.7117 264° West 336 387 18,700 3,480 Climbing Memphis Center
11:38AM 34.6447 -92.8281 264° West 343 395 22,400 2,340 Climbing Memphis Center
11:39AM 34.6308 -92.9781 264° West 367 422 23,600 1,980 Climbing Memphis Center
11:40AM 34.6181 -93.1114 263° West 395 455 26,500 2,820 Climbing Memphis Center
11:41AM 34.6069 -93.2381 264° West 388 447 29,400 2,280 Climbing Memphis Center
11:42AM 34.5958 -93.3600 264° West 372 428 31,300 1,620 Climbing Memphis Center
11:43AM 34.5833 -93.4819 263° West 367 422 32,800 1,440 Climbing Memphis Center
11:44AM 34.5714 -93.6067 263° West 369 425 34,300 1,380 Climbing Memphis Center
11:45AM 34.5594 -93.7328 263° West 374 430 35,700 1,500 Climbing Memphis Center
11:46AM 34.5450 -93.8772 263° West 365 420 37,500 1,560 Climbing Memphis Center
11:47AM 34.5331 -93.9981 263° West 356 410 39,000 1,320 Climbing Memphis Center
11:48AM 34.5214 -94.1092 263° West 341 392 40,300 1,080 Climbing Memphis Center
11:49AM 34.5094 -94.2386 264° West 328 377 41,400 720 Climbing Fort Worth Center
11:50AM 34.4989 -94.3494 263° West 328 377 41,900 480 Climbing Fort Worth Center
11:51AM 34.4872 -94.4606 263° West 331 381 42,500 480 Climbing Fort Worth Center
11:52AM 34.4753 -94.5714 263° West 332 382 43,000 240 Climbing Fort Worth Center
11:53AM 34.4639 -94.6853 263° West 338 389 43,000  Level Fort Worth Center
11:54AM 34.4506 -94.8042 262° West 353 406 43,000  Level Fort Worth Center
11:55AM 34.4358 -94.9492 263° West 360 414 43,000  Level Fort Worth Center
11:56AM 34.4222 -95.0739 262° West 370 426 43,000  Level Fort Worth Center
11:57AM 34.4092 -95.1975 263° West 371 427 43,000  Level Fort Worth Center
11:58AM 34.3944 -95.3239 262° West 376 433 43,000  Level Fort Worth Center
11:59AM 34.3803 -95.4489 262° West 376 433 43,000  Level Fort Worth Center
12:00PM 34.3644 -95.5858 262° West 375 432 43,000  Level Fort Worth Center
12:01PM 34.3503 -95.7092 262° West 372 428 43,000  Level Fort Worth Center
12:03PM 34.3369 -95.8339 263° West 373 429 43,000  Level Fort Worth Center
12:04PM 34.3183 -95.9817 261° West 372 428 43,000  Level Fort Worth Center
12:05PM 34.3050 -96.1053 263° West 372 428 43,000  Level Fort Worth Center
12:06PM 34.2903 -96.2306 262° West 375 432 43,000  Level Fort Worth Center
12:07PM 34.2758 -96.3553 262° West 376 433 43,000  Level Fort Worth Center
12:08PM 34.2611 -96.4772 262° West 373 429 43,000  Level Fort Worth Center
12:09PM 34.2458 -96.6019 262° West 373 429 43,000  Level Fort Worth Center
12:10PM 34.2275 -96.7483 261° West 371 427 43,000  Level Fort Worth Center
12:11PM 34.2122 -96.8728 262° West 372 428 43,000  Level Fort Worth Center
12:12PM 34.1975 -96.9961 262° West 370 426 43,000  Level Fort Worth Center
12:13PM 34.1817 -97.1200 261° West 373 429 43,000  Level Fort Worth Center
12:14PM 34.1650 -97.2453 261° West 374 430 43,000  Level Fort Worth Center
12:15PM 34.1497 -97.3700 262° West 375 432 43,000  Level Fort Worth Center
12:16PM 34.1306 -97.5200 261° West 376 433 43,000  Level Fort Worth Center
12:17PM 34.1147 -97.6433 261° West 375 432 43,000  Level Fort Worth Center
12:18PM 34.0986 -97.7689 261° West 376 433 43,000  Level Fort Worth Center
12:19PM 34.0808 -97.9031 261° West 376 433 43,000  Level Fort Worth Center
12:20PM 34.0636 -98.0281 261° West 378 435 43,000  Level Fort Worth Center
12:21PM 34.0467 -98.1522 261° West 378 435 43,000  Level Fort Worth Center
12:22PM 34.0294 -98.2772 261° West 378 435 43,000  Level Fort Worth Center
12:23PM 34.0131 -98.4022 261° West 379 436 43,000  Level Fort Worth Center
12:24PM 33.9925 -98.5511 261° West 378 435 43,000  Level Fort Worth Center
12:25PM 33.9736 -98.6742 260° West 377 434 43,000  Level Fort Worth Center
12:26PM 33.9519 -98.7967 258° West 377 434 43,000  Level Fort Worth Center
12:27PM 33.9308 -98.9194 258° West 376 433 43,000  Level Fort Worth Center
12:28PM 33.9097 -99.0414 258° West 376 433 43,000  Level Fort Worth Center
12:29PM 33.8886 -99.1606 258° West 374 430 43,000  Level Fort Worth Center
12:30PM 33.8628 -99.3064 258° West 374 430 43,000  Level Fort Worth Center
12:31PM 33.8408 -99.4278 258° West 374 430 43,000  Level Fort Worth Center
12:33PM 33.8206 -99.5522 259° West 375 432 43,000  Level Fort Worth Center
12:34PM 33.7975 -99.6747 257° West 377 434 43,000  Level Fort Worth Center
12:35PM 33.7753 -99.7986 258° West 378 435 43,000  Level Fort Worth Center
12:36PM 33.7478 -99.9481 258° West 379 436 43,000  Level Fort Worth Center
12:37PM 33.7261 -100.0722 258° West 381 438 43,000  Level Fort Worth Center
12:38PM 33.7025 -100.1994 257° West 386 444 43,000  Level Fort Worth Center
12:39PM 33.6789 -100.3267 257° West 389 448 43,000  Level Fort Worth Center
12:40PM 33.6547 -100.4547 257° West 389 448 43,000  Level Fort Worth Center
12:41PM 33.6311 -100.5825 258° West 390 449 43,000  Level Fort Worth Center
12:42PM 33.6025 -100.7364 257° West 391 450 43,000  Level Fort Worth Center
12:43PM 33.5772 -100.8647 257° West 392 451 43,000  Level Fort Worth Center
12:44PM 33.5536 -100.9911 257° West 392 451 43,000  Level Fort Worth Center
12:45PM 33.5297 -101.1167 257° West 392 451 43,000  Level Fort Worth Center
12:46PM 33.5047 -101.2408 256° West 390 449 43,000  Level Fort Worth Center
12:47PM 33.4792 -101.3736 257° West 384 442 43,000  Level Fort Worth Center
12:48PM 33.4553 -101.4972 257° West 384 442 43,000  Level Fort Worth Center
12:49PM 33.4306 -101.6192 256° West 383 441 43,000  Level Fort Worth Center
12:50PM 33.4017 -101.7664 257° West 382 440 43,000  Level Fort Worth Center
12:51PM 33.3778 -101.8886 257° West 381 438 43,000  Level Fort Worth Center
12:52PM 33.3528 -102.0097 256° West 379 436 43,000  Level Fort Worth Center
12:53PM 33.3294 -102.1314 257° West 379 436 43,000  Level Fort Worth Center
12:54PM 33.3042 -102.2517 256° West 378 435 43,000  Level Fort Worth Center
12:55PM 33.2753 -102.3972 257° West 378 435 43,000  Level Fort Worth Center
12:56PM 33.2478 -102.5181 255° West 378 435 43,000  Level Fort Worth Center
12:57PM 33.2072 -102.6333 247° West 378 435 43,000  Level Fort Worth Center
12:58PM 33.1697 -102.7519 249° West 381 438 43,000  Level Fort Worth Center
12:59PM 33.1239 -102.8900 248° West 380 437 43,000  Level Fort Worth Center
01:00PM 33.0847 -103.0081 248° West 381 438 43,000  Level Fort Worth Center
01:02PM 33.0461 -103.1247 248° West 380 437 43,000  Level Fort Worth Center
01:03PM 33.0086 -103.2417 249° West 381 438 43,000  Level Fort Worth Center
01:04PM 32.9686 -103.3594 248° West 382 440 43,000  Level Fort Worth Center
01:05PM 32.9292 -103.4753 248° West 382 440 43,000  Level Fort Worth Center
01:06PM 32.8831 -103.6147 249° West 381 438 43,000  Level Fort Worth Center
01:07PM 32.8447 -103.7308 249° West 380 437 43,000  Level Fort Worth Center
01:08PM 32.8044 -103.8458 247° West 379 436 43,000  Level Fort Worth Center
01:09PM 32.7650 -103.9628 248° West 381 438 43,000  Level Fort Worth Center
01:10PM 32.7250 -104.0786 248° West 380 437 43,000  Level Fort Worth Center
01:11PM 32.6767 -104.2183 248° West 381 438 43,000  Level Fort Worth Center
01:12PM 32.6350 -104.3350 247° West 381 438 43,000  Level Fort Worth Center
01:13PM 32.5969 -104.4506 249° West 381 438 43,000  Level Fort Worth Center
01:14PM 32.5561 -104.5678 248° West 381 438 43,000  Level Fort Worth Center
01:15PM 32.5144 -104.6853 247° West 383 441 43,000  Level Fort Worth Center
01:16PM 32.4742 -104.8025 248° West 384 442 43,000  Level Fort Worth Center
01:17PM 32.4169 -104.9672 248° West 391 450 43,000  Level Albuquerque Center
01:18PM 32.3764 -105.0856 248° West 391 450 43,000  Level Albuquerque Center
01:19PM 32.3350 -105.2022 247° West 388 447 43,000  Level Albuquerque Center
01:20PM 32.2936 -105.3192 247° West 386 444 43,000  Level Albuquerque Center
01:21PM 32.2511 -105.4389 247° West 393 452 43,000  Level Albuquerque Center
01:22PM 32.2028 -105.5792 248° West 389 448 43,000  Level Albuquerque Center
01:23PM 32.1614 -105.6964 247° West 389 448 43,000  Level Albuquerque Center
01:25PM 32.1589 -105.8211 269° West 383 441 43,000  Level Albuquerque Center
01:26PM 32.1661 -105.9603 274° West 385 443 43,000  Level Albuquerque Center
01:27PM 32.1719 -106.0728 274° West 386 444 43,000  Level Albuquerque Center
01:28PM 32.1769 -106.2244 272° West 388 447 43,000  Level Albuquerque Center
01:29PM 32.1822 -106.3367 273° West 387 445 43,000  Level Albuquerque Center
01:30PM 32.1878 -106.4639 273° West 388 447 43,000  Level Albuquerque Center
01:31PM 32.1942 -106.6172 273° West 390 449 43,000  Level Albuquerque Center
01:32PM 32.1992 -106.7436 273° West 387 445 43,000  Level Albuquerque Center
01:33PM 32.2047 -106.8842 273° West 389 448 43,000  Level Albuquerque Center
01:34PM 32.2089 -107.0108 272° West 388 447 43,000  Level Albuquerque Center
01:35PM 32.2139 -107.1369 273° West 387 445 43,000  Level Albuquerque Center
01:36PM 32.2167 -107.2567 272° West 392 451 43,000  Level Albuquerque Center
01:37PM 32.2189 -107.3856 271° West 394 453 43,000  Level Albuquerque Center
01:38PM 32.2256 -107.5139 274° West 388 447 43,000  Level Albuquerque Center
01:39PM 32.2297 -107.6672 272° West 388 447 43,000  Level Albuquerque Center
01:40PM 32.2333 -107.7950 272° West 389 448 43,000  Level Albuquerque Center
01:41PM 32.2378 -107.9167 273° West 386 444 43,000  Level Albuquerque Center
01:42PM 32.2406 -108.0481 271° West 386 444 43,000  Level Albuquerque Center
01:43PM 32.2447 -108.1742 272° West 385 443 43,000  Level Albuquerque Center
01:44PM 32.2472 -108.2997 271° West 384 442 43,000 -420 Level Albuquerque Center
01:45PM 32.2519 -108.4497 272° West 388 447 42,200 -960 Descending Albuquerque Center
01:46PM 32.2542 -108.5797 271° West 393 452 41,100 -1,080 Descending Albuquerque Center
01:47PM 32.2578 -108.7072 272° West 391 450 40,000 -1,260 Descending Albuquerque Center
01:48PM 32.2597 -108.8325 271° West 385 443 38,500 -960 Descending Albuquerque Center
01:49PM 32.2622 -108.9525 271° West 372 428 38,000 -420 Descending Albuquerque Center
01:50PM 32.2644 -109.0753 271° West 373 429 37,700 -1,260 Descending Albuquerque Center
01:51PM 32.2683 -109.2278 272° West 380 437 35,500 -2,100 Descending Albuquerque Center
01:52PM 32.2611 -109.3578 266° West 390 449 33,400 -2,100 Descending Albuquerque Center
01:53PM 32.2461 -109.4883 262° West 396 456 31,200 -1,740 Descending Albuquerque Center
01:55PM 32.2047 -109.6058 247° West 393 452 29,900 -1,140 Descending Albuquerque Center
01:56PM 32.1594 -109.7069 242° Southwest 367 422 28,900 -1,140 Descending Albuquerque Center
01:57PM 32.1344 -109.8133 255° West 352 405 27,600 -1,800 Descending Albuquerque Center
01:58PM 32.1406 -109.9494 273° West 351 404 25,200 -2,280 Descending Albuquerque Center
01:59PM 32.1444 -110.0667 272° West 368 423 23,200 -2,160 Descending Albuquerque Center
01:59PM 32.1483 -110.0742 301° West 374 430 23,000 -2,340 Descending Albuquerque Center
01:59PM 32.1492 -110.1436 271° West 373 429 21,800 -2,160 Descending Albuquerque Center
02:00PM 32.1550 -110.1981 277° West 379 436 20,800 -2,100 Descending Albuquerque Center
02:00PM 32.1547 -110.2656 270° West 374 430 19,700 -1,980 Descending Albuquerque Center
02:01PM 32.1597 -110.3169 277° West 370 426 18,800 -1,800 Descending Albuquerque Center
02:01PM 32.1706 -110.3875 280° West 358 412 17,700 -1,800 Descending Albuquerque Center
02:02PM 32.1786 -110.4261 284° West 353 406 17,000 -2,100 Descending Albuquerque Center
02:02PM 32.1917 -110.5153 280° West 346 398 15,400 -2,280 Descending Albuquerque Center
02:03PM 32.2019 -110.5569 286° West 344 396 14,700 -1,680 Descending Albuquerque Center
02:03PM 32.2131 -110.6228 281° West 340 391 13,700 -1,680 Descending Albuquerque Center
02:04PM 32.2214 -110.6628 284° West 335 386 13,000 -1,740 Descending Albuquerque Center
02:04PM 32.2264 -110.6997 279° West 320 368 12,300 -1,980 Descending Albuquerque Center
02:05PM 32.2394 -110.7597 284° West 314 361 11,000 -2,040 Descending Albuquerque Center
02:05PM 32.2433 -110.7858 280° West 294 338 10,500 -1,920 Descending Albuquerque Center
02:06PM 32.2608 -110.8744 283° West 280 322 8,600 -1,800 Descending Albuquerque Center
02:07PM 32.2733 -110.9381 283° West 289 333 7,300 -2,040 Descending Albuquerque Center
02:07PM 32.2744 -110.9667 273° West 272 313 6,600 -1,500 Descending Albuquerque Center
02:08PM 32.2461 -111.0039 228° Southwest 277 319 5,800 -1,200 Descending Albuquerque Center
02:08PM 32.2242 -111.0156 204° Southwest 237 273 5,400 -1,080 Descending Albuquerque Center
02:09PM 32.1878 -111.0192 185° South 247 284 4,700 -1,020 Descending Albuquerque Center
02:09PM 32.1756 -111.0083 143° Southeast 194 223 4,500 -300 Descending Albuquerque Center
02:10PM 32.1283 -111.0089 181° South 229 264 4,400 -1,140 Descending Albuquerque Center
02:10PM 32.1458 -110.9761 58° Northeast 149 171 3,400 -30,000 Descending Albuquerque Center
02:12PM 32.1161 -110.9410 343° North  Level Estimated
02:19PM 32.1161 -110.9410 151° Southeast  Level Estimated